sensor_id;sensor_type;location;lat;lon;timestamp;temperature;humidity
17483;DHT22;8858;52.308;20.994;2024-03-23T00:53:45;10.10;99.90
17483;DHT22;8858;52.308;20.994;2024-03-23T00:56:13;10.10;99.90
17483;DHT22;8858;52.308;20.994;2024-03-23T00:58:39;10.10;99.90
17483;DHT22;8858;52.308;20.994;2024-03-23T01:01:07;10.10;99.90
17483;DHT22;8858;52.308;20.994;2024-03-23T01:03:33;10.10;99.90
17483;DHT22;8858;52.308;20.994;2024-03-23T01:06:00;10.20;99.90
17483;DHT22;8858;52.308;20.994;2024-03-23T01:08:27;10.20;99.90
17483;DHT22;8858;52.308;20.994;2024-03-23T01:13:44;10.20;99.90
17483;DHT22;8858;52.308;20.994;2024-03-23T01:16:15;10.20;99.90
17483;DHT22;8858;52.308;20.994;2024-03-23T01:18:41;10.10;99.90
17483;DHT22;8858;52.308;20.994;2024-03-23T01:21:09;10.10;99.90
17483;DHT22;8858;52.308;20.994;2024-03-23T01:23:35;10.10;99.90
17483;DHT22;8858;52.308;20.994;2024-03-23T01:26:03;10.10;99.90
17483;DHT22;8858;52.308;20.994;2024-03-23T01:28:29;10.20;99.90
17483;DHT22;8858;52.308;20.994;2024-03-23T01:30:58;10.10;99.90
17483;DHT22;8858;52.308;20.994;2024-03-23T01:33:24;10.10;99.90
17483;DHT22;8858;52.308;20.994;2024-03-23T01:35:51;10.10;99.90
17483;DHT22;8858;52.308;20.994;2024-03-23T01:38:17;10.10;99.90
17483;DHT22;8858;52.308;20.994;2024-03-23T01:40:45;10.10;99.90
17483;DHT22;8858;52.308;20.994;2024-03-23T01:43:13;10.10;99.90
17483;DHT22;8858;52.308;20.994;2024-03-23T01:48:30;10.10;99.90
17483;DHT22;8858;52.308;20.994;2024-03-23T01:53:37;10.00;99.90
17483;DHT22;8858;52.308;20.994;2024-03-23T01:56:05;10.00;99.90
17483;DHT22;8858;52.308;20.994;2024-03-23T01:58:33;10.00;99.90
17483;DHT22;8858;52.308;20.994;2024-03-23T02:04:06;10.00;99.90
17483;DHT22;8858;52.308;20.994;2024-03-23T02:06:39;10.00;99.90
17483;DHT22;8858;52.308;20.994;2024-03-23T02:09:06;10.00;99.90
17483;DHT22;8858;52.308;20.994;2024-03-23T02:16:58;10.00;99.90
17483;DHT22;8858;52.308;20.994;2024-03-23T02:19:28;9.90;99.90
17483;DHT22;8858;52.308;20.994;2024-03-23T02:22:02;9.80;99.90
17483;DHT22;8858;52.308;20.994;2024-03-23T02:27:29;9.80;99.90
17483;DHT22;8858;52.308;20.994;2024-03-23T02:32:36;9.80;99.90
17483;DHT22;8858;52.308;20.994;2024-03-23T02:37:55;9.90;99.90
17483;DHT22;8858;52.308;20.994;2024-03-23T02:42:58;9.90;99.90
17483;DHT22;8858;52.308;20.994;2024-03-23T02:45:25;10.00;99.90
17483;DHT22;8858;52.308;20.994;2024-03-23T02:47:52;10.00;99.90
17483;DHT22;8858;52.308;20.994;2024-03-23T02:50:29;10.00;99.90
17483;DHT22;8858;52.308;20.994;2024-03-23T02:52:56;10.00;99.90
17483;DHT22;8858;52.308;20.994;2024-03-23T02:55:23;10.00;99.90
17483;DHT22;8858;52.308;20.994;2024-03-23T02:57:50;10.00;99.90
17483;DHT22;8858;52.308;20.994;2024-03-23T03:00:19;10.00;99.90
17483;DHT22;8858;52.308;20.994;2024-03-23T03:02:46;10.00;99.90
17483;DHT22;8858;52.308;20.994;2024-03-23T03:08:19;10.10;99.90
17483;DHT22;8858;52.308;20.994;2024-03-23T03:10:46;10.10;99.90
17483;DHT22;8858;52.308;20.994;2024-03-23T03:13:13;10.00;99.90
17483;DHT22;8858;52.308;20.994;2024-03-23T03:15:43;9.90;99.90
17483;DHT22;8858;52.308;20.994;2024-03-23T03:18:10;9.90;99.90
17483;DHT22;8858;52.308;20.994;2024-03-23T03:23:33;9.90;99.90
17483;DHT22;8858;52.308;20.994;2024-03-23T03:28:57;9.80;99.90
17483;DHT22;8858;52.308;20.994;2024-03-23T03:34:06;9.90;99.90
17483;DHT22;8858;52.308;20.994;2024-03-23T03:36:34;9.90;99.90
17483;DHT22;8858;52.308;20.994;2024-03-23T03:39:06;9.90;99.90
17483;DHT22;8858;52.308;20.994;2024-03-23T03:41:34;10.00;99.90
17483;DHT22;8858;52.308;20.994;2024-03-23T03:44:01;10.00;99.90
17483;DHT22;8858;52.308;20.994;2024-03-23T03:46:29;10.00;99.90
17483;DHT22;8858;52.308;20.994;2024-03-23T03:48:56;10.00;99.90
17483;DHT22;8858;52.308;20.994;2024-03-23T03:51:25;10.00;99.90
17483;DHT22;8858;52.308;20.994;2024-03-23T03:53:52;10.00;99.90
17483;DHT22;8858;52.308;20.994;2024-03-23T03:56:19;10.00;99.90
17483;DHT22;8858;52.308;20.994;2024-03-23T03:58:50;10.00;99.90
17483;DHT22;8858;52.308;20.994;2024-03-23T04:01:17;10.00;99.90
17483;DHT22;8858;52.308;20.994;2024-03-23T04:03:43;10.00;99.90
17483;DHT22;8858;52.308;20.994;2024-03-23T04:06:11;10.10;99.90
17483;DHT22;8858;52.308;20.994;2024-03-23T04:08:38;10.10;99.90
17483;DHT22;8858;52.308;20.994;2024-03-23T04:11:06;10.00;99.90
17483;DHT22;8858;52.308;20.994;2024-03-23T04:13:35;10.00;99.90
17483;DHT22;8858;52.308;20.994;2024-03-23T04:22:17;10.10;99.90
17483;DHT22;8858;52.308;20.994;2024-03-23T04:27:44;10.20;99.90
17483;DHT22;8858;52.308;20.994;2024-03-23T04:30:13;10.20;99.90
17483;DHT22;8858;52.308;20.994;2024-03-23T04:32:40;10.20;99.90
17483;DHT22;8858;52.308;20.994;2024-03-23T04:43:55;10.20;99.90
17483;DHT22;8858;52.308;20.994;2024-03-23T04:46:23;10.20;99.90
17483;DHT22;8858;52.308;20.994;2024-03-23T04:48:51;10.20;99.90
17483;DHT22;8858;52.308;20.994;2024-03-23T04:51:22;10.30;99.90
17483;DHT22;8858;52.308;20.994;2024-03-23T04:53:51;10.30;99.90
17483;DHT22;8858;52.308;20.994;2024-03-23T04:56:18;10.30;99.90
17483;DHT22;8858;52.308;20.994;2024-03-23T04:58:46;10.30;99.90
17483;DHT22;8858;52.308;20.994;2024-03-23T05:07:15;10.30;99.90
17483;DHT22;8858;52.308;20.994;2024-03-23T05:12:34;10.40;99.90
17483;DHT22;8858;52.308;20.994;2024-03-23T05:15:06;10.40;99.90
17483;DHT22;8858;52.308;20.994;2024-03-23T05:17:33;10.40;99.90
17483;DHT22;8858;52.308;20.994;2024-03-23T05:22:59;10.50;99.90
17483;DHT22;8858;52.308;20.994;2024-03-23T05:25:27;10.40;99.90
17483;DHT22;8858;52.308;20.994;2024-03-23T05:27:53;10.40;99.90
17483;DHT22;8858;52.308;20.994;2024-03-23T05:30:21;10.50;99.90
17483;DHT22;8858;52.308;20.994;2024-03-23T05:32:47;10.40;99.90
17483;DHT22;8858;52.308;20.994;2024-03-23T05:35:15;10.40;99.90
17483;DHT22;8858;52.308;20.994;2024-03-23T05:37:41;10.40;99.90
17483;DHT22;8858;52.308;20.994;2024-03-23T05:40:11;10.30;99.90
17483;DHT22;8858;52.308;20.994;2024-03-23T05:42:40;10.30;99.90
17483;DHT22;8858;52.308;20.994;2024-03-23T05:48:01;10.40;99.90
17483;DHT22;8858;52.308;20.994;2024-03-23T05:50:29;10.40;99.90
17483;DHT22;8858;52.308;20.994;2024-03-23T05:52:55;10.40;99.90
17483;DHT22;8858;52.308;20.994;2024-03-23T05:55:27;10.40;99.90
17483;DHT22;8858;52.308;20.994;2024-03-23T05:57:54;10.50;99.90
17483;DHT22;8858;52.308;20.994;2024-03-23T06:02:58;10.40;99.90
17483;DHT22;8858;52.308;20.994;2024-03-23T06:05:25;10.40;99.90
17483;DHT22;8858;52.308;20.994;2024-03-23T06:07:53;10.40;99.90
17483;DHT22;8858;52.308;20.994;2024-03-23T06:13:18;10.40;99.90
17483;DHT22;8858;52.308;20.994;2024-03-23T06:15:46;10.50;99.90
17483;DHT22;8858;52.308;20.994;2024-03-23T06:18:15;10.50;99.90
17483;DHT22;8858;52.308;20.994;2024-03-23T06:20:43;10.50;99.90
17483;DHT22;8858;52.308;20.994;2024-03-23T06:23:11;10.50;99.90
17483;DHT22;8858;52.308;20.994;2024-03-23T06:25:38;10.50;99.90
17483;DHT22;8858;52.308;20.994;2024-03-23T06:28:05;10.50;99.90
17483;DHT22;8858;52.308;20.994;2024-03-23T06:30:35;10.50;99.90
17483;DHT22;8858;52.308;20.994;2024-03-23T06:33:01;10.60;99.90
17483;DHT22;8858;52.308;20.994;2024-03-23T06:35:28;10.60;99.90
17483;DHT22;8858;52.308;20.994;2024-03-23T06:37:58;10.50;99.90
17483;DHT22;8858;52.308;20.994;2024-03-23T06:43:28;10.50;99.90
17483;DHT22;8858;52.308;20.994;2024-03-23T06:51:45;10.50;99.90
17483;DHT22;8858;52.308;20.994;2024-03-23T06:54:13;10.50;99.90
17483;DHT22;8858;52.308;20.994;2024-03-23T06:56:39;10.50;99.90
17483;DHT22;8858;52.308;20.994;2024-03-23T07:02:05;10.60;99.90
17483;DHT22;8858;52.308;20.994;2024-03-23T07:04:34;10.60;99.90
17483;DHT22;8858;52.308;20.994;2024-03-23T07:07:02;10.60;99.90
17483;DHT22;8858;52.308;20.994;2024-03-23T07:09:30;10.60;99.90
17483;DHT22;8858;52.308;20.994;2024-03-23T07:11:56;10.60;99.90
17483;DHT22;8858;52.308;20.994;2024-03-23T07:17:08;10.70;99.90
17483;DHT22;8858;52.308;20.994;2024-03-23T07:19:36;10.70;99.90
17483;DHT22;8858;52.308;20.994;2024-03-23T07:22:03;10.80;99.90
17483;DHT22;8858;52.308;20.994;2024-03-23T07:24:31;10.70;99.90
17483;DHT22;8858;52.308;20.994;2024-03-23T07:26:58;10.70;99.90
17483;DHT22;8858;52.308;20.994;2024-03-23T07:29:27;10.70;99.90
17483;DHT22;8858;52.308;20.994;2024-03-23T07:31:53;10.80;99.90
17483;DHT22;8858;52.308;20.994;2024-03-23T07:34:24;10.80;99.90
17483;DHT22;8858;52.308;20.994;2024-03-23T07:36:50;10.80;99.90
17483;DHT22;8858;52.308;20.994;2024-03-23T07:39:19;10.90;99.90
17483;DHT22;8858;52.308;20.994;2024-03-23T07:41:45;10.90;99.90
17483;DHT22;8858;52.308;20.994;2024-03-23T07:47:02;11.00;99.90
17483;DHT22;8858;52.308;20.994;2024-03-23T07:49:29;10.90;99.90
17483;DHT22;8858;52.308;20.994;2024-03-23T07:51:57;11.00;99.90
17483;DHT22;8858;52.308;20.994;2024-03-23T07:56:57;11.00;99.90
17483;DHT22;8858;52.308;20.994;2024-03-23T07:59:25;11.00;99.90
17483;DHT22;8858;52.308;20.994;2024-03-23T08:01:51;11.00;99.90
17483;DHT22;8858;52.308;20.994;2024-03-23T08:04:19;11.00;99.90
17483;DHT22;8858;52.308;20.994;2024-03-23T08:06:46;11.00;99.90
17483;DHT22;8858;52.308;20.994;2024-03-23T08:09:14;11.00;99.90
17483;DHT22;8858;52.308;20.994;2024-03-23T08:11:40;11.00;99.90
17483;DHT22;8858;52.308;20.994;2024-03-23T08:14:11;10.90;99.90
17483;DHT22;8858;52.308;20.994;2024-03-23T08:16:37;11.00;99.90
17483;DHT22;8858;52.308;20.994;2024-03-23T08:19:05;11.00;99.90
17483;DHT22;8858;52.308;20.994;2024-03-23T08:21:31;11.00;99.90
17483;DHT22;8858;52.308;20.994;2024-03-23T08:23:59;11.10;99.90
17483;DHT22;8858;52.308;20.994;2024-03-23T08:26:25;11.10;99.90
17483;DHT22;8858;52.308;20.994;2024-03-23T08:31:50;11.10;99.90
17483;DHT22;8858;52.308;20.994;2024-03-23T08:34:17;11.20;99.90
17483;DHT22;8858;52.308;20.994;2024-03-23T08:36:50;11.20;99.90
17483;DHT22;8858;52.308;20.994;2024-03-23T08:39:18;11.30;99.90
17483;DHT22;8858;52.308;20.994;2024-03-23T08:41:45;11.30;99.90
17483;DHT22;8858;52.308;20.994;2024-03-23T08:46:57;11.50;99.90
17483;DHT22;8858;52.308;20.994;2024-03-23T08:49:25;11.50;99.90
17483;DHT22;8858;52.308;20.994;2024-03-23T08:51:51;11.60;99.90
17483;DHT22;8858;52.308;20.994;2024-03-23T08:57:25;11.70;99.90
17483;DHT22;8858;52.308;20.994;2024-03-23T08:59:52;11.80;99.90
17483;DHT22;8858;52.308;20.994;2024-03-23T09:02:20;11.90;99.90
17483;DHT22;8858;52.308;20.994;2024-03-23T09:04:47;12.00;99.90
17483;DHT22;8858;52.308;20.994;2024-03-23T09:07:13;12.10;99.90
17483;DHT22;8858;52.308;20.994;2024-03-23T09:09:41;12.20;99.90
17483;DHT22;8858;52.308;20.994;2024-03-23T09:12:08;12.20;99.90
17483;DHT22;8858;52.308;20.994;2024-03-23T09:17:25;12.40;99.90
17483;DHT22;8858;52.308;20.994;2024-03-23T09:19:52;12.50;99.90
17483;DHT22;8858;52.308;20.994;2024-03-23T09:22:18;12.50;99.90
17483;DHT22;8858;52.308;20.994;2024-03-23T09:24:46;12.60;99.90
17483;DHT22;8858;52.308;20.994;2024-03-23T09:27:12;12.70;99.90
17483;DHT22;8858;52.308;20.994;2024-03-23T09:29:39;12.80;99.90
17483;DHT22;8858;52.308;20.994;2024-03-23T09:32:09;13.00;99.90
17483;DHT22;8858;52.308;20.994;2024-03-23T09:34:38;13.00;99.90
17483;DHT22;8858;52.308;20.994;2024-03-23T09:37:04;13.00;99.90
17483;DHT22;8858;52.308;20.994;2024-03-23T09:42:20;13.00;99.90
17483;DHT22;8858;52.308;20.994;2024-03-23T09:44:49;13.10;99.90
17483;DHT22;8858;52.308;20.994;2024-03-23T09:47:16;13.10;99.90
17483;DHT22;8858;52.308;20.994;2024-03-23T09:49:46;13.00;99.90
17483;DHT22;8858;52.308;20.994;2024-03-23T09:52:13;13.00;99.90
17483;DHT22;8858;52.308;20.994;2024-03-23T09:57:36;13.10;99.90
17483;DHT22;8858;52.308;20.994;2024-03-23T10:00:04;13.20;99.90
17483;DHT22;8858;52.308;20.994;2024-03-23T10:02:34;13.30;99.90
17483;DHT22;8858;52.308;20.994;2024-03-23T10:05:04;13.30;99.90
17483;DHT22;8858;52.308;20.994;2024-03-23T10:07:30;13.40;99.90
17483;DHT22;8858;52.308;20.994;2024-03-23T10:09:57;13.50;99.90
17483;DHT22;8858;52.308;20.994;2024-03-23T10:12:24;13.60;99.90
17483;DHT22;8858;52.308;20.994;2024-03-23T10:14:51;13.70;99.90
17483;DHT22;8858;52.308;20.994;2024-03-23T10:17:20;13.80;99.90
17483;DHT22;8858;52.308;20.994;2024-03-23T10:23:01;14.00;99.90
17483;DHT22;8858;52.308;20.994;2024-03-23T10:25:28;14.20;99.90
17483;DHT22;8858;52.308;20.994;2024-03-23T10:30:59;14.30;99.90
17483;DHT22;8858;52.308;20.994;2024-03-23T10:36:07;14.40;99.90
17483;DHT22;8858;52.308;20.994;2024-03-23T10:38:36;14.40;99.90
17483;DHT22;8858;52.308;20.994;2024-03-23T10:41:03;14.50;99.90
17483;DHT22;8858;52.308;20.994;2024-03-23T10:46:22;14.70;99.90
17483;DHT22;8858;52.308;20.994;2024-03-23T10:51:48;14.90;99.90
17483;DHT22;8858;52.308;20.994;2024-03-23T10:54:21;15.00;99.90
17483;DHT22;8858;52.308;20.994;2024-03-23T10:56:50;15.10;99.90
17483;DHT22;8858;52.308;20.994;2024-03-23T11:02:18;15.10;99.90
17483;DHT22;8858;52.308;20.994;2024-03-23T11:10:37;15.40;99.90
17483;DHT22;8858;52.308;20.994;2024-03-23T11:15:50;15.50;99.90
17483;DHT22;8858;52.308;20.994;2024-03-23T11:18:21;15.70;99.90
17483;DHT22;8858;52.308;20.994;2024-03-23T11:20:47;15.80;99.90
17483;DHT22;8858;52.308;20.994;2024-03-23T11:25:57;15.90;99.90
17483;DHT22;8858;52.308;20.994;2024-03-23T11:28:24;16.00;99.90
17483;DHT22;8858;52.308;20.994;2024-03-23T11:30:50;16.00;99.90
17483;DHT22;8858;52.308;20.994;2024-03-23T11:36:07;16.30;99.90
17483;DHT22;8858;52.308;20.994;2024-03-23T11:41:45;16.50;99.90
17483;DHT22;8858;52.308;20.994;2024-03-23T11:44:17;16.60;99.90
17483;DHT22;8858;52.308;20.994;2024-03-23T11:46:44;16.50;99.90
17483;DHT22;8858;52.308;20.994;2024-03-23T11:51:59;16.30;99.90
17483;DHT22;8858;52.308;20.994;2024-03-23T11:54:29;16.30;99.90
17483;DHT22;8858;52.308;20.994;2024-03-23T11:56:58;16.30;99.90
17483;DHT22;8858;52.308;20.994;2024-03-23T11:59:33;16.30;99.90
17483;DHT22;8858;52.308;20.994;2024-03-23T12:02:05;16.20;99.90
17483;DHT22;8858;52.308;20.994;2024-03-23T12:04:33;16.20;99.90
17483;DHT22;8858;52.308;20.994;2024-03-23T12:07:12;16.20;99.90
17483;DHT22;8858;52.308;20.994;2024-03-23T12:09:40;16.30;99.90
17483;DHT22;8858;52.308;20.994;2024-03-23T12:12:10;16.30;99.90
17483;DHT22;8858;52.308;20.994;2024-03-23T12:20:11;16.20;99.90
17483;DHT22;8858;52.308;20.994;2024-03-23T12:25:34;16.30;99.90
17483;DHT22;8858;52.308;20.994;2024-03-23T12:28:03;16.30;99.90
17483;DHT22;8858;52.308;20.994;2024-03-23T12:30:33;16.20;99.90
17483;DHT22;8858;52.308;20.994;2024-03-23T12:35:56;16.20;99.90
17483;DHT22;8858;52.308;20.994;2024-03-23T12:38:23;16.10;99.90
17483;DHT22;8858;52.308;20.994;2024-03-23T12:40:50;15.90;99.90
17483;DHT22;8858;52.308;20.994;2024-03-23T12:43:19;15.90;99.90
17483;DHT22;8858;52.308;20.994;2024-03-23T12:45:49;15.90;99.90
17483;DHT22;8858;52.308;20.994;2024-03-23T12:51:00;15.90;99.90
17483;DHT22;8858;52.308;20.994;2024-03-23T12:53:28;15.80;99.90
17483;DHT22;8858;52.308;20.994;2024-03-23T12:55:55;15.80;99.90
17483;DHT22;8858;52.308;20.994;2024-03-23T12:58:24;15.80;99.90
17483;DHT22;8858;52.308;20.994;2024-03-23T13:00:51;15.70;99.90
17483;DHT22;8858;52.308;20.994;2024-03-23T13:03:18;15.70;99.90
17483;DHT22;8858;52.308;20.994;2024-03-23T13:05:51;15.70;99.90
17483;DHT22;8858;52.308;20.994;2024-03-23T13:11:06;15.80;99.90
17483;DHT22;8858;52.308;20.994;2024-03-23T13:13:36;15.80;99.90
17483;DHT22;8858;52.308;20.994;2024-03-23T13:16:02;15.80;99.90
17483;DHT22;8858;52.308;20.994;2024-03-23T13:18:30;15.80;99.90
17483;DHT22;8858;52.308;20.994;2024-03-23T13:20:56;15.80;99.90
17483;DHT22;8858;52.308;20.994;2024-03-23T13:23:24;15.90;99.90
17483;DHT22;8858;52.308;20.994;2024-03-23T13:25:51;15.90;99.90
17483;DHT22;8858;52.308;20.994;2024-03-23T13:28:20;15.90;99.90
17483;DHT22;8858;52.308;20.994;2024-03-23T13:30:51;15.90;99.90
17483;DHT22;8858;52.308;20.994;2024-03-23T13:33:19;15.90;99.90
17483;DHT22;8858;52.308;20.994;2024-03-23T13:35:49;15.80;99.90
17483;DHT22;8858;52.308;20.994;2024-03-23T13:38:17;15.80;99.90
17483;DHT22;8858;52.308;20.994;2024-03-23T13:40:53;15.70;99.90
17483;DHT22;8858;52.308;20.994;2024-03-23T13:46:10;15.70;99.90
17483;DHT22;8858;52.308;20.994;2024-03-23T13:51:27;15.70;99.90
17483;DHT22;8858;52.308;20.994;2024-03-23T13:53:55;15.70;99.90
17483;DHT22;8858;52.308;20.994;2024-03-23T13:56:23;15.70;99.90
17483;DHT22;8858;52.308;20.994;2024-03-23T13:58:50;15.70;99.90
17483;DHT22;8858;52.308;20.994;2024-03-23T14:01:18;15.60;99.90
17483;DHT22;8858;52.308;20.994;2024-03-23T14:03:45;15.70;99.90
17483;DHT22;8858;52.308;20.994;2024-03-23T14:06:11;15.60;99.90
17483;DHT22;8858;52.308;20.994;2024-03-23T14:08:42;15.60;99.90
17483;DHT22;8858;52.308;20.994;2024-03-23T14:11:09;15.60;99.90
17483;DHT22;8858;52.308;20.994;2024-03-23T14:16:09;15.50;99.90
17483;DHT22;8858;52.308;20.994;2024-03-23T14:18:37;15.50;99.90
17483;DHT22;8858;52.308;20.994;2024-03-23T14:21:04;15.50;99.90
17483;DHT22;8858;52.308;20.994;2024-03-23T14:23:33;15.50;99.90
17483;DHT22;8858;52.308;20.994;2024-03-23T14:26:00;15.40;99.90
17483;DHT22;8858;52.308;20.994;2024-03-23T14:28:28;15.40;99.90
17483;DHT22;8858;52.308;20.994;2024-03-23T14:30:56;15.40;99.90
17483;DHT22;8858;52.308;20.994;2024-03-23T14:33:28;15.40;99.90
17483;DHT22;8858;52.308;20.994;2024-03-23T14:35:56;15.30;99.90
17483;DHT22;8858;52.308;20.994;2024-03-23T14:38:24;15.30;99.90
17483;DHT22;8858;52.308;20.994;2024-03-23T14:40:51;15.30;99.90
17483;DHT22;8858;52.308;20.994;2024-03-23T14:43:19;15.20;99.90
17483;DHT22;8858;52.308;20.994;2024-03-23T14:46:08;15.20;99.90
17483;DHT22;8858;52.308;20.994;2024-03-23T14:51:39;15.00;99.90
17483;DHT22;8858;52.308;20.994;2024-03-23T15:00:12;15.00;99.90
17483;DHT22;8858;52.308;20.994;2024-03-23T15:02:39;14.80;99.90
17483;DHT22;8858;52.308;20.994;2024-03-23T15:05:08;14.70;99.90
17483;DHT22;8858;52.308;20.994;2024-03-23T15:07:37;14.70;99.90
17483;DHT22;8858;52.308;20.994;2024-03-23T15:10:08;14.60;99.90
17483;DHT22;8858;52.308;20.994;2024-03-23T15:12:36;14.40;99.90
17483;DHT22;8858;52.308;20.994;2024-03-23T15:15:03;13.90;99.90
17483;DHT22;8858;52.308;20.994;2024-03-23T15:17:30;13.40;99.90
17483;DHT22;8858;52.308;20.994;2024-03-23T15:20:00;12.90;99.90
17483;DHT22;8858;52.308;20.994;2024-03-23T15:25:20;12.50;99.90
17483;DHT22;8858;52.308;20.994;2024-03-23T15:27:53;12.40;99.90
17483;DHT22;8858;52.308;20.994;2024-03-23T15:30:20;12.20;99.90
17483;DHT22;8858;52.308;20.994;2024-03-23T15:35:38;12.00;99.90
17483;DHT22;8858;52.308;20.994;2024-03-23T15:38:09;11.90;99.90
17483;DHT22;8858;52.308;20.994;2024-03-23T15:40:37;11.90;99.90
17483;DHT22;8858;52.308;20.994;2024-03-23T15:43:08;12.00;99.90
17483;DHT22;8858;52.308;20.994;2024-03-23T15:45:34;11.90;99.90
17483;DHT22;8858;52.308;20.994;2024-03-23T15:48:01;11.90;99.90
17483;DHT22;8858;52.308;20.994;2024-03-23T15:50:27;11.90;99.90
17483;DHT22;8858;52.308;20.994;2024-03-23T15:52:55;11.80;99.90
17483;DHT22;8858;52.308;20.994;2024-03-23T15:55:22;11.70;99.90
17483;DHT22;8858;52.308;20.994;2024-03-23T15:57:50;11.80;99.90
17483;DHT22;8858;52.308;20.994;2024-03-23T16:00:18;11.80;99.90
17483;DHT22;8858;52.308;20.994;2024-03-23T16:05:40;11.80;99.90
17483;DHT22;8858;52.308;20.994;2024-03-23T16:08:07;11.90;99.90
17483;DHT22;8858;52.308;20.994;2024-03-23T16:10:34;11.90;99.90
17483;DHT22;8858;52.308;20.994;2024-03-23T16:13:04;11.90;99.90
17483;DHT22;8858;52.308;20.994;2024-03-23T16:15:30;11.80;99.90
17483;DHT22;8858;52.308;20.994;2024-03-23T16:17:57;11.80;99.90
17483;DHT22;8858;52.308;20.994;2024-03-23T16:20:24;11.70;99.90
17483;DHT22;8858;52.308;20.994;2024-03-23T16:22:52;11.70;99.90
17483;DHT22;8858;52.308;20.994;2024-03-23T16:25:18;11.70;99.90
17483;DHT22;8858;52.308;20.994;2024-03-23T16:27:47;11.60;99.90
17483;DHT22;8858;52.308;20.994;2024-03-23T16:30:15;11.50;99.90
17483;DHT22;8858;52.308;20.994;2024-03-23T16:32:43;11.60;99.90
17483;DHT22;8858;52.308;20.994;2024-03-23T16:35:14;11.50;99.90
17483;DHT22;8858;52.308;20.994;2024-03-23T16:40:39;11.40;99.90
17483;DHT22;8858;52.308;20.994;2024-03-23T16:43:06;11.50;99.90
17483;DHT22;8858;52.308;20.994;2024-03-23T16:45:34;11.60;99.90
17483;DHT22;8858;52.308;20.994;2024-03-23T16:48:02;11.60;99.90
17483;DHT22;8858;52.308;20.994;2024-03-23T16:50:30;11.70;99.90
17483;DHT22;8858;52.308;20.994;2024-03-23T16:53:02;11.70;99.90
17483;DHT22;8858;52.308;20.994;2024-03-23T16:55:28;11.80;99.90
17483;DHT22;8858;52.308;20.994;2024-03-23T16:57:55;11.80;99.90
17483;DHT22;8858;52.308;20.994;2024-03-23T17:00:21;11.80;99.90
17483;DHT22;8858;52.308;20.994;2024-03-23T17:08:43;11.80;99.90
17483;DHT22;8858;52.308;20.994;2024-03-23T17:14:06;11.80;99.90
17483;DHT22;8858;52.308;20.994;2024-03-23T17:16:34;11.80;99.90
17483;DHT22;8858;52.308;20.994;2024-03-23T17:19:02;11.80;99.90
17483;DHT22;8858;52.308;20.994;2024-03-23T17:24:21;11.80;99.90
17483;DHT22;8858;52.308;20.994;2024-03-23T17:26:48;11.70;99.90
17483;DHT22;8858;52.308;20.994;2024-03-23T17:29:15;11.70;99.90
17483;DHT22;8858;52.308;20.994;2024-03-23T17:31:46;11.80;99.90
17483;DHT22;8858;52.308;20.994;2024-03-23T17:34:12;11.80;99.90
17483;DHT22;8858;52.308;20.994;2024-03-23T17:39:35;11.70;99.90
17483;DHT22;8858;52.308;20.994;2024-03-23T17:42:06;11.70;99.90
17483;DHT22;8858;52.308;20.994;2024-03-23T17:44:33;11.70;99.90
17483;DHT22;8858;52.308;20.994;2024-03-23T17:49:47;11.60;99.90
17483;DHT22;8858;52.308;20.994;2024-03-23T17:52:15;11.60;99.90
17483;DHT22;8858;52.308;20.994;2024-03-23T17:54:42;11.60;99.90
17483;DHT22;8858;52.308;20.994;2024-03-23T18:00:07;11.70;99.90
17483;DHT22;8858;52.308;20.994;2024-03-23T18:02:37;11.60;99.90
17483;DHT22;8858;52.308;20.994;2024-03-23T18:05:04;11.60;99.90
17483;DHT22;8858;52.308;20.994;2024-03-23T18:07:32;11.70;99.90
17483;DHT22;8858;52.308;20.994;2024-03-23T18:09:59;11.60;99.90
17483;DHT22;8858;52.308;20.994;2024-03-23T18:12:26;11.60;99.90
17483;DHT22;8858;52.308;20.994;2024-03-23T18:14:57;11.60;99.90
17483;DHT22;8858;52.308;20.994;2024-03-23T18:17:26;11.60;99.90
17483;DHT22;8858;52.308;20.994;2024-03-23T18:19:54;11.60;99.90
17483;DHT22;8858;52.308;20.994;2024-03-23T18:22:22;11.50;99.90
17483;DHT22;8858;52.308;20.994;2024-03-23T18:24:48;11.50;99.90
17483;DHT22;8858;52.308;20.994;2024-03-23T18:30:12;11.50;99.90
17483;DHT22;8858;52.308;20.994;2024-03-23T18:32:42;11.50;99.90
17483;DHT22;8858;52.308;20.994;2024-03-23T18:35:08;11.40;99.90
17483;DHT22;8858;52.308;20.994;2024-03-23T18:40:33;10.70;99.90
17483;DHT22;8858;52.308;20.994;2024-03-23T18:43:00;10.30;99.90
17483;DHT22;8858;52.308;20.994;2024-03-23T18:45:28;10.10;99.90
17483;DHT22;8858;52.308;20.994;2024-03-23T18:47:57;9.90;99.90
17483;DHT22;8858;52.308;20.994;2024-03-23T18:50:24;9.80;99.90
17483;DHT22;8858;52.308;20.994;2024-03-23T18:52:53;9.60;99.90
17483;DHT22;8858;52.308;20.994;2024-03-23T18:55:19;9.30;99.90
17483;DHT22;8858;52.308;20.994;2024-03-23T18:57:47;9.00;99.90
17483;DHT22;8858;52.308;20.994;2024-03-23T19:00:14;8.80;99.90
17483;DHT22;8858;52.308;20.994;2024-03-23T19:02:43;8.50;99.90
17483;DHT22;8858;52.308;20.994;2024-03-23T19:05:09;8.40;99.90
17483;DHT22;8858;52.308;20.994;2024-03-23T19:07:37;8.20;99.90
17483;DHT22;8858;52.308;20.994;2024-03-23T19:10:05;8.10;99.90
17483;DHT22;8858;52.308;20.994;2024-03-23T19:18:27;7.90;99.90
17483;DHT22;8858;52.308;20.994;2024-03-23T19:23:49;7.80;99.90
17483;DHT22;8858;52.308;20.994;2024-03-23T19:26:19;7.60;99.90
17483;DHT22;8858;52.308;20.994;2024-03-23T19:28:46;7.50;99.90
17483;DHT22;8858;52.308;20.994;2024-03-23T19:34:10;7.40;99.90
17483;DHT22;8858;52.308;20.994;2024-03-23T19:36:38;7.30;99.90
17483;DHT22;8858;52.308;20.994;2024-03-23T19:39:04;7.20;99.90
17483;DHT22;8858;52.308;20.994;2024-03-23T19:41:31;7.30;99.90
17483;DHT22;8858;52.308;20.994;2024-03-23T19:43:59;7.10;99.90
17483;DHT22;8858;52.308;20.994;2024-03-23T19:49:30;6.90;99.90
17483;DHT22;8858;52.308;20.994;2024-03-23T19:51:59;6.80;99.90
17483;DHT22;8858;52.308;20.994;2024-03-23T19:54:27;6.70;99.90
17483;DHT22;8858;52.308;20.994;2024-03-23T19:59:42;6.70;99.90
17483;DHT22;8858;52.308;20.994;2024-03-23T20:02:12;6.60;99.90
17483;DHT22;8858;52.308;20.994;2024-03-23T20:04:41;6.60;99.90
17483;DHT22;8858;52.308;20.994;2024-03-23T20:07:08;6.60;99.90
17483;DHT22;8858;52.308;20.994;2024-03-23T20:09:36;6.60;99.90
17483;DHT22;8858;52.308;20.994;2024-03-23T20:14:59;6.40;99.90
17483;DHT22;8858;52.308;20.994;2024-03-23T20:17:30;6.30;99.90
17483;DHT22;8858;52.308;20.994;2024-03-23T20:20:00;6.30;99.90
17483;DHT22;8858;52.308;20.994;2024-03-23T20:22:29;6.30;99.90
17483;DHT22;8858;52.308;20.994;2024-03-23T20:24:55;6.30;99.90
17483;DHT22;8858;52.308;20.994;2024-03-23T20:27:23;6.30;99.90
17483;DHT22;8858;52.308;20.994;2024-03-23T20:29:53;6.30;99.90
17483;DHT22;8858;52.308;20.994;2024-03-23T20:32:20;6.30;99.90
17483;DHT22;8858;52.308;20.994;2024-03-23T20:34:47;6.20;99.90